Pagina principală
METAR-TAF:

METAR-TAF

Aeroporturi :

Niș, Serbia

Latitudine: 43-20N, longitudine: 021-54E, elevație: 202 m

Observații meteo curente

Raportul a fost făcut în urmă cu 16 de minute, la 09:00 UTC
Vânt 3 kt de la Sud-vest, variabil între Sud/Sud-est și Nord-vest
Temperatură 15°C
Umiditate 51%
Presiune 1017 hPa
Vizibilitate de 10 km sau mai mult
nu există nori sub 1.500 m și nici cumulonimbus

METAR: LYNI 240900Z 23003KT 150V320 CAVOK 15/05 Q1017 NOSIG

Ora: 10:16 (09:16 UTC)

Prognoză

Raportul a fost făcut în urmă cu 4 ore și 16 de minute, la 05:00 UTC
Prognoză valabilă de la 24 ora 06 UTC la 25 ora 06 UTC
Vânt 5 kt de la Sud
Vizibilitate de 10 km sau mai mult
nu există nori sub 1.500 m și nici cumulonimbus

TAF: LYNI 240500Z 2406/2506 17005KT CAVOK TX24/2414Z TN07/2406Z

Observații și prognoze meteo pentru peste 4.000 de aeroporturi (rapoarte METAR și TAF).

Stațiile disponibile sunt reprezentate pe hartă prin puncte galbene și roșii.

Țineți indicatorul mouse-ului pe punctul dorit pentru a vedea denumirea stației.

Apoi, faceți clic pentru a vedea observațiile și prognozele meteorologice.

Pentru a schimba harta: Pentru mărire, faceți clic pe butoanele verzi cu cruce neagră; pentru micșorare, pe butonul verde cu o liniuță; pentru hărți învecinate, pe săgețile verzi.


METAR-TAF: